createdAt,value
2023-02-11T00:00:39.480Z,83.60
2023-02-11T00:02:00.599Z,83.60
2023-02-11T00:03:21.729Z,83.70
2023-02-11T00:04:42.358Z,83.80
2023-02-11T00:06:05.543Z,83.60
2023-02-11T00:07:28.968Z,83.60
2023-02-11T00:08:49.846Z,83.50
2023-02-11T00:10:10.605Z,83.40
2023-02-11T00:11:31.190Z,83.50
2023-02-11T00:12:51.738Z,83.60
2023-02-11T00:14:12.577Z,83.50
2023-02-11T00:15:33.595Z,83.50
2023-02-11T00:16:54.812Z,83.50
2023-02-11T00:18:15.749Z,83.30
2023-02-11T00:19:36.580Z,83.30
2023-02-11T00:20:57.182Z,83.20
2023-02-11T00:22:18.463Z,83.20
2023-02-11T00:23:40.721Z,83.10
2023-02-11T00:25:01.416Z,83.20
2023-02-11T00:26:24.510Z,83.10
2023-02-11T00:27:45.243Z,83.00
2023-02-11T00:29:06.120Z,82.60
2023-02-11T00:30:26.904Z,82.70
2023-02-11T00:31:47.958Z,82.70
2023-02-11T00:33:09.041Z,82.80
2023-02-11T00:34:29.365Z,82.80
2023-02-11T00:35:50.519Z,82.70
2023-02-11T00:37:11.770Z,82.70
2023-02-11T00:38:32.684Z,82.70
2023-02-11T00:39:55.046Z,82.50
2023-02-11T00:41:18.199Z,82.40
2023-02-11T00:42:39.115Z,82.30
2023-02-11T00:44:00.105Z,82.20
2023-02-11T00:45:21.115Z,82.00
2023-02-11T00:46:41.782Z,82.20
2023-02-11T00:48:02.299Z,82.30
2023-02-11T00:49:25.000Z,82.30
2023-02-11T00:50:45.950Z,82.20
2023-02-11T00:52:07.062Z,82.10
2023-02-11T00:53:27.915Z,82.00
2023-02-11T00:54:48.393Z,81.90
2023-02-11T00:56:10.551Z,81.70
2023-02-11T00:57:31.208Z,81.80
2023-02-11T00:58:52.313Z,81.90
2023-02-11T01:00:14.185Z,82.10
2023-02-11T01:01:34.999Z,82.10
2023-02-11T01:02:56.060Z,82.10
2023-02-11T01:04:17.055Z,82.10
2023-02-11T01:05:37.870Z,82.00
2023-02-11T01:06:58.444Z,82.00
2023-02-11T01:08:19.057Z,82.20
2023-02-11T01:09:39.798Z,82.20
2023-02-11T01:11:02.302Z,82.20
2023-02-11T01:12:24.396Z,82.10
2023-02-11T01:13:44.949Z,81.90
2023-02-11T01:15:07.458Z,82.00
2023-02-11T01:16:28.175Z,81.90
2023-02-11T01:17:48.762Z,81.90
2023-02-11T01:19:09.770Z,82.10
2023-02-11T01:20:30.302Z,82.10
2023-02-11T01:21:51.141Z,82.20
2023-02-11T01:23:12.048Z,82.40
2023-02-11T01:24:33.248Z,82.70
2023-02-11T01:25:53.923Z,82.90
2023-02-11T01:27:14.686Z,83.10
2023-02-11T01:28:36.835Z,83.30
2023-02-11T01:29:57.396Z,83.30
2023-02-11T01:31:18.352Z,83.20
2023-02-11T01:32:39.297Z,83.20
2023-02-11T01:33:59.839Z,83.10
2023-02-11T01:35:20.548Z,83.20
2023-02-11T01:36:41.574Z,83.00
2023-02-11T01:38:02.166Z,83.20
2023-02-11T01:39:23.021Z,83.20
2023-02-11T01:40:48.029Z,83.30
2023-02-11T01:42:10.601Z,83.40
2023-02-11T01:43:33.309Z,83.40
2023-02-11T01:44:57.506Z,83.60
2023-02-11T01:46:25.049Z,83.70
2023-02-11T01:47:46.543Z,83.80
2023-02-11T01:49:08.455Z,83.90
2023-02-11T01:50:29.456Z,83.90
2023-02-11T01:51:51.852Z,83.90
2023-02-11T01:53:12.851Z,84.00
2023-02-11T01:54:36.415Z,84.10
2023-02-11T01:55:57.971Z,84.40
2023-02-11T01:57:20.585Z,84.40
2023-02-11T01:58:42.519Z,84.60
2023-02-11T02:00:09.747Z,84.50
2023-02-11T02:01:31.885Z,84.60
2023-02-11T02:02:56.485Z,84.60
2023-02-11T02:04:18.925Z,84.60
2023-02-11T02:05:42.154Z,84.90
2023-02-11T02:07:05.720Z,85.00
2023-02-11T02:08:30.192Z,85.00
2023-02-11T02:09:56.119Z,85.20
2023-02-11T02:11:16.761Z,85.10
2023-02-11T02:12:37.605Z,85.20
2023-02-11T02:13:58.197Z,85.30
2023-02-11T02:15:23.531Z,85.50
2023-02-11T02:16:45.038Z,85.60
2023-02-11T02:18:22.663Z,85.70
2023-02-11T02:20:04.269Z,85.90
2023-02-11T02:22:05.380Z,86.00
2023-02-11T02:23:35.772Z,86.30
2023-02-11T02:24:59.769Z,86.30
2023-02-11T02:26:41.977Z,86.20
2023-02-11T02:28:15.779Z,86.40
2023-02-11T02:30:08.812Z,86.50
2023-02-11T02:31:49.729Z,86.60
2023-02-11T02:33:24.470Z,86.70
2023-02-11T02:34:50.130Z,86.60
2023-02-11T02:36:15.763Z,86.60
2023-02-11T02:37:40.451Z,86.40
2023-02-11T02:39:06.052Z,86.60
2023-02-11T02:40:31.645Z,86.70
2023-02-11T02:41:53.100Z,86.70
2023-02-11T02:43:14.253Z,86.60
2023-02-11T02:44:35.205Z,86.40
2023-02-11T02:45:56.133Z,86.60
2023-02-11T02:47:16.927Z,86.80
2023-02-11T02:48:38.747Z,86.90
2023-02-11T02:49:59.831Z,87.20
2023-02-11T02:51:58.216Z,87.30
2023-02-11T02:53:25.013Z,87.30
2023-02-11T02:55:07.317Z,87.30
2023-02-11T02:56:33.642Z,87.30
2023-02-11T02:58:04.622Z,87.30
2023-02-11T02:59:36.223Z,87.30
2023-02-11T03:01:00.762Z,87.60
2023-02-11T03:02:25.070Z,87.70
2023-02-11T03:03:51.510Z,87.80
2023-02-11T03:05:17.610Z,87.90
2023-02-11T03:06:46.113Z,88.20
2023-02-11T03:08:09.659Z,88.20
2023-02-11T03:09:34.014Z,88.30
2023-02-11T03:10:55.713Z,88.30
2023-02-11T03:12:16.992Z,88.50
2023-02-11T03:13:39.977Z,88.60
2023-02-11T03:15:02.153Z,88.50
2023-02-11T03:16:26.650Z,88.50
2023-02-11T03:17:50.863Z,88.40
2023-02-11T03:19:14.219Z,88.50
2023-02-11T03:20:36.759Z,88.60
2023-02-11T03:21:58.100Z,88.60
2023-02-11T03:23:22.160Z,88.80
2023-02-11T03:24:42.793Z,88.70
2023-02-11T03:26:06.143Z,88.80
2023-02-11T03:27:32.721Z,89.00
2023-02-11T03:28:59.254Z,89.00
2023-02-11T03:30:22.981Z,89.10
2023-02-11T03:31:51.452Z,89.10
2023-02-11T03:33:16.994Z,89.10
2023-02-11T03:34:43.073Z,88.90
2023-02-11T03:36:07.888Z,88.90
2023-02-11T03:37:32.342Z,88.90
2023-02-11T03:38:57.106Z,88.80
2023-02-11T03:40:20.559Z,88.80
2023-02-11T03:41:42.597Z,88.70
2023-02-11T03:43:07.993Z,88.80
2023-02-11T03:44:31.549Z,88.80
2023-02-11T03:45:53.844Z,88.80
2023-02-11T03:47:15.815Z,88.70
2023-02-11T03:48:40.172Z,88.70
2023-02-11T03:50:04.002Z,88.70
2023-02-11T03:51:25.807Z,88.80
2023-02-11T03:52:49.289Z,88.60
2023-02-11T03:54:18.655Z,88.70
2023-02-11T03:55:40.465Z,88.70
2023-02-11T03:57:01.648Z,89.10
2023-02-11T03:58:22.661Z,89.30
2023-02-11T03:59:54.119Z,89.20
2023-02-11T04:01:15.411Z,89.10
2023-02-11T04:02:37.288Z,89.20
2023-02-11T04:03:57.794Z,89.30
2023-02-11T04:05:20.148Z,89.40
2023-02-11T04:06:40.897Z,89.30
2023-02-11T04:08:01.784Z,89.40
2023-02-11T04:09:22.656Z,89.20
2023-02-11T04:10:43.292Z,89.30
2023-02-11T04:12:04.763Z,89.40
2023-02-11T04:13:25.868Z,89.40
2023-02-11T04:14:46.454Z,89.40
2023-02-11T04:16:07.443Z,89.60
2023-02-11T04:17:28.121Z,89.70
2023-02-11T04:18:49.172Z,89.60
2023-02-11T04:20:11.266Z,89.80
2023-02-11T04:21:33.180Z,89.90
2023-02-11T04:22:53.636Z,89.90
2023-02-11T04:24:14.331Z,89.90
2023-02-11T04:25:35.311Z,89.90
2023-02-11T04:26:56.199Z,89.90
2023-02-11T04:28:18.928Z,89.90
2023-02-11T04:29:39.408Z,89.90
2023-02-11T04:31:00.200Z,89.90
2023-02-11T04:32:20.837Z,89.90
2023-02-11T04:33:41.675Z,89.90
2023-02-11T04:35:02.535Z,89.90
2023-02-11T04:36:23.475Z,89.90
2023-02-11T04:37:45.802Z,89.90
2023-02-11T04:39:06.399Z,89.90
2023-02-11T04:40:27.045Z,89.90
2023-02-11T04:41:47.759Z,89.90
2023-02-11T04:43:08.326Z,89.90
2023-02-11T04:44:28.673Z,89.90
2023-02-11T04:45:49.981Z,89.90
2023-02-11T04:47:11.344Z,89.90
2023-02-11T04:48:32.426Z,89.90
2023-02-11T04:49:53.394Z,89.90
2023-02-11T04:51:14.062Z,89.90
2023-02-11T04:52:35.010Z,89.90
2023-02-11T04:53:57.207Z,89.90
2023-02-11T04:55:18.641Z,89.90
2023-02-11T04:56:39.420Z,89.90
2023-02-11T04:58:00.136Z,89.90
2023-02-11T04:59:21.421Z,89.90
2023-02-11T05:00:42.110Z,89.90
2023-02-11T05:02:03.050Z,89.90
2023-02-11T05:03:23.965Z,89.90
2023-02-11T05:04:45.059Z,89.90
2023-02-11T05:06:06.626Z,89.90
2023-02-11T05:07:28.131Z,89.90
2023-02-11T05:08:48.894Z,89.90
2023-02-11T05:10:10.920Z,89.90
2023-02-11T05:11:31.705Z,89.90
2023-02-11T05:12:55.332Z,89.90
2023-02-11T05:14:16.369Z,89.90
2023-02-11T05:15:37.318Z,89.90
2023-02-11T05:16:58.271Z,89.90
2023-02-11T05:18:18.936Z,89.90
2023-02-11T05:19:39.636Z,89.90
2023-02-11T05:21:00.303Z,89.90
2023-02-11T05:22:20.991Z,89.90
2023-02-11T05:23:42.170Z,89.90
2023-02-11T05:25:02.837Z,89.90
2023-02-11T05:26:24.938Z,89.90
2023-02-11T05:27:45.606Z,89.90
2023-02-11T05:29:06.230Z,89.90
2023-02-11T05:30:27.215Z,89.90
2023-02-11T05:31:47.805Z,89.90
2023-02-11T05:33:08.482Z,89.90
2023-02-11T05:34:29.101Z,89.90
2023-02-11T05:35:50.124Z,89.90
2023-02-11T05:37:11.350Z,89.90
2023-02-11T05:38:32.393Z,89.90
2023-02-11T05:39:53.159Z,89.90
2023-02-11T05:41:13.894Z,89.90
2023-02-11T05:42:36.005Z,89.90
2023-02-11T05:43:56.500Z,89.90
2023-02-11T05:45:17.294Z,89.90
2023-02-11T05:46:38.129Z,89.90
2023-02-11T05:47:58.724Z,89.90
2023-02-11T05:49:19.428Z,89.90
2023-02-11T05:50:40.138Z,89.90
2023-02-11T05:52:00.705Z,89.90
2023-02-11T05:53:21.433Z,89.90
2023-02-11T05:54:42.448Z,89.90
2023-02-11T05:56:03.103Z,89.90
2023-02-11T05:57:23.502Z,89.90
2023-02-11T05:58:45.602Z,89.90
2023-02-11T06:00:07.241Z,89.90
2023-02-11T06:01:28.039Z,89.90
2023-02-11T06:02:48.801Z,89.90
2023-02-11T06:04:09.922Z,89.90
2023-02-11T06:05:30.437Z,89.90
2023-02-11T06:06:50.980Z,89.90
2023-02-11T06:08:12.192Z,89.90
2023-02-11T06:09:32.603Z,89.90
2023-02-11T06:10:53.299Z,89.90
2023-02-11T06:12:13.823Z,89.90
2023-02-11T06:13:34.861Z,89.90
2023-02-11T06:14:57.008Z,89.90
2023-02-11T06:16:17.777Z,89.90
2023-02-11T06:17:38.343Z,89.90
2023-02-11T06:18:59.397Z,89.90
2023-02-11T06:20:20.505Z,89.90
2023-02-11T06:21:44.215Z,89.90
2023-02-11T06:23:04.970Z,89.90
2023-02-11T06:24:48.100Z,89.90
2023-02-11T06:26:07.612Z,89.90
2023-02-11T06:27:28.739Z,89.90
2023-02-11T06:28:49.711Z,89.90
2023-02-11T06:30:12.299Z,89.90
2023-02-11T06:31:33.060Z,89.90
2023-02-11T06:32:53.761Z,89.90
2023-02-11T06:34:14.384Z,89.90
2023-02-11T06:35:35.226Z,89.90
2023-02-11T06:36:56.268Z,89.90
2023-02-11T06:38:17.264Z,89.90
2023-02-11T06:39:38.132Z,89.90
2023-02-11T06:40:58.919Z,89.90
2023-02-11T06:42:19.632Z,89.90
2023-02-11T06:43:41.081Z,89.90
2023-02-11T06:45:01.561Z,89.90
2023-02-11T06:46:23.525Z,89.90
2023-02-11T06:47:44.492Z,89.90
2023-02-11T06:49:05.205Z,89.90
2023-02-11T06:50:25.962Z,89.90
2023-02-11T06:51:46.525Z,89.90
2023-02-11T06:53:07.264Z,89.90
2023-02-11T06:54:28.122Z,89.90
2023-02-11T06:55:49.187Z,89.90
2023-02-11T06:57:09.872Z,89.90
2023-02-11T06:58:30.752Z,89.90
2023-02-11T06:59:51.884Z,89.90
2023-02-11T07:01:15.870Z,89.90
2023-02-11T07:02:38.259Z,89.90
2023-02-11T07:03:58.974Z,89.90
2023-02-11T07:05:19.786Z,89.90
2023-02-11T07:06:40.252Z,89.90
2023-02-11T07:08:01.083Z,89.90
2023-02-11T07:09:21.845Z,89.90
2023-02-11T07:10:42.692Z,89.90
2023-02-11T07:12:03.638Z,89.90
2023-02-11T07:13:23.858Z,89.90
2023-02-11T07:14:44.754Z,89.90
2023-02-11T07:16:06.932Z,89.90
2023-02-11T07:17:27.528Z,89.90
2023-02-11T07:18:49.977Z,89.90
2023-02-11T07:20:11.122Z,89.90
2023-02-11T07:21:31.884Z,89.90
2023-02-11T07:22:52.750Z,89.90
2023-02-11T07:24:13.480Z,89.90
2023-02-11T07:25:35.972Z,89.90
2023-02-11T07:26:56.655Z,89.90
2023-02-11T07:28:17.389Z,89.90
2023-02-11T07:29:38.286Z,89.90
2023-02-11T07:30:59.189Z,89.90
2023-02-11T07:32:20.000Z,89.90
2023-02-11T07:33:40.976Z,89.90
2023-02-11T07:35:02.795Z,89.90
2023-02-11T07:36:24.088Z,89.90
2023-02-11T07:37:44.881Z,89.90
2023-02-11T07:39:05.640Z,89.90
2023-02-11T07:40:26.276Z,89.90
2023-02-11T07:41:47.316Z,89.90
2023-02-11T07:43:07.805Z,89.90
2023-02-11T07:44:28.744Z,89.90
2023-02-11T07:45:49.690Z,89.90
2023-02-11T07:47:10.546Z,89.90
2023-02-11T07:48:31.281Z,89.90
2023-02-11T07:49:53.966Z,89.90
2023-02-11T07:51:20.686Z,89.90
2023-02-11T07:52:41.384Z,89.90
2023-02-11T07:54:02.818Z,89.90
2023-02-11T07:55:23.562Z,89.90
2023-02-11T07:56:44.315Z,89.90
2023-02-11T07:58:05.409Z,89.90
2023-02-11T07:59:26.180Z,89.90
2023-02-11T08:00:46.767Z,89.90
2023-02-11T08:02:07.254Z,89.90
2023-02-11T08:03:28.048Z,89.90
2023-02-11T08:04:48.599Z,89.90
2023-02-11T08:06:10.997Z,89.90
2023-02-11T08:07:32.809Z,89.90
2023-02-11T08:08:53.576Z,89.90
2023-02-11T08:10:13.913Z,89.90
2023-02-11T08:11:34.775Z,89.90
2023-02-11T08:12:56.389Z,89.90
2023-02-11T08:14:17.346Z,89.90
2023-02-11T08:15:37.934Z,89.90
2023-02-11T08:16:58.670Z,89.90
2023-02-11T08:18:19.219Z,89.90
2023-02-11T08:19:39.938Z,89.90
2023-02-11T08:21:04.731Z,89.90
2023-02-11T08:22:25.737Z,89.90
2023-02-11T08:23:48.176Z,89.90
2023-02-11T08:25:09.722Z,89.90
2023-02-11T08:26:32.002Z,89.90
2023-02-11T08:27:52.832Z,89.90
2023-02-11T08:29:14.936Z,89.90
2023-02-11T08:30:35.528Z,89.90
2023-02-11T08:31:56.429Z,89.90
2023-02-11T08:33:17.083Z,89.90
2023-02-11T08:34:37.770Z,89.90
2023-02-11T08:35:58.451Z,89.90
2023-02-11T08:37:19.229Z,89.90
2023-02-11T08:38:39.701Z,89.90
2023-02-11T08:40:01.998Z,89.90
2023-02-11T08:41:22.479Z,89.90
2023-02-11T08:42:43.046Z,89.90
2023-02-11T08:44:03.948Z,89.90
2023-02-11T08:45:24.861Z,89.90
2023-02-11T08:46:45.793Z,89.90
2023-02-11T08:48:06.355Z,89.90
2023-02-11T08:49:30.538Z,89.90
2023-02-11T08:50:51.186Z,89.90
2023-02-11T08:52:11.953Z,89.90
2023-02-11T08:53:32.740Z,89.90
2023-02-11T08:54:53.654Z,89.90
2023-02-11T08:56:16.878Z,89.90
2023-02-11T08:57:37.502Z,89.90
2023-02-11T08:58:58.685Z,89.90
2023-02-11T09:00:20.373Z,89.90
2023-02-11T09:01:40.847Z,89.90
2023-02-11T09:03:01.450Z,89.90
2023-02-11T09:04:22.100Z,89.90
2023-02-11T09:05:43.077Z,89.90
2023-02-11T09:07:03.732Z,89.90
2023-02-11T09:08:25.616Z,89.90
2023-02-11T09:09:46.233Z,89.90
2023-02-11T09:11:07.466Z,89.90
2023-02-11T09:12:29.482Z,89.90
2023-02-11T09:13:52.564Z,89.90
2023-02-11T09:15:14.754Z,89.90
2023-02-11T09:16:36.478Z,89.90
2023-02-11T09:17:57.505Z,89.90
2023-02-11T09:19:18.537Z,89.90
2023-02-11T09:20:39.552Z,89.90
2023-02-11T09:22:00.286Z,89.90
2023-02-11T09:23:21.222Z,89.90
2023-02-11T09:24:42.030Z,89.80
2023-02-11T09:26:08.143Z,89.40
2023-02-11T09:27:30.893Z,89.20
2023-02-11T09:28:51.637Z,89.10
2023-02-11T09:30:13.036Z,89.10
2023-02-11T09:31:34.619Z,89.00
2023-02-11T09:32:55.326Z,88.90
2023-02-11T09:34:16.248Z,88.80
2023-02-11T09:35:36.761Z,88.70
2023-02-11T09:36:57.640Z,88.40
2023-02-11T09:38:18.478Z,88.00
2023-02-11T09:39:39.363Z,88.10
2023-02-11T09:40:59.823Z,88.30
2023-02-11T09:42:37.270Z,88.10
2023-02-11T09:43:59.145Z,87.90
2023-02-11T09:45:21.906Z,87.70
2023-02-11T09:46:43.254Z,87.50
2023-02-11T09:48:07.728Z,87.20
2023-02-11T09:49:33.655Z,87.00
2023-02-11T09:50:57.193Z,86.90
2023-02-11T09:52:25.157Z,86.80
2023-02-11T09:53:46.060Z,86.40
2023-02-11T09:55:15.155Z,86.50
2023-02-11T09:56:36.793Z,86.30
2023-02-11T09:57:58.546Z,86.10
2023-02-11T09:59:18.930Z,86.00
2023-02-11T10:00:44.331Z,85.90
2023-02-11T10:02:09.816Z,85.70
2023-02-11T10:03:43.132Z,85.40
2023-02-11T10:05:34.453Z,85.30
2023-02-11T10:06:57.857Z,85.00
2023-02-11T10:08:23.775Z,84.90
2023-02-11T10:10:04.688Z,84.70
2023-02-11T10:11:32.350Z,84.90
2023-02-11T10:13:09.081Z,84.90
2023-02-11T10:14:54.131Z,84.40
2023-02-11T10:16:24.293Z,83.90
2023-02-11T10:17:58.095Z,84.00
2023-02-11T10:19:30.916Z,83.80
2023-02-11T10:21:03.648Z,83.50
2023-02-11T10:22:27.558Z,83.40
2023-02-11T10:23:51.609Z,83.20
2023-02-11T10:25:20.483Z,83.10
2023-02-11T10:26:42.167Z,82.90
2023-02-11T10:28:12.762Z,82.60
2023-02-11T10:29:37.152Z,82.10
2023-02-11T10:31:01.119Z,82.00
2023-02-11T10:32:29.800Z,81.80
2023-02-11T10:33:54.408Z,82.00
2023-02-11T10:35:16.754Z,81.70
2023-02-11T10:36:38.964Z,81.70
2023-02-11T10:37:59.799Z,81.80
2023-02-11T10:39:22.159Z,81.30
2023-02-11T10:40:42.851Z,81.20
2023-02-11T10:42:06.951Z,81.00
2023-02-11T10:43:30.913Z,81.10
2023-02-11T10:44:58.181Z,81.10
2023-02-11T10:46:22.689Z,81.10
2023-02-11T10:47:44.028Z,81.10
2023-02-11T10:49:04.439Z,81.10
2023-02-11T10:50:27.597Z,81.20
2023-02-11T10:51:48.022Z,81.10
2023-02-11T10:53:16.032Z,80.80
2023-02-11T10:54:36.923Z,81.00
2023-02-11T10:55:57.741Z,81.00
2023-02-11T10:57:19.531Z,81.00
2023-02-11T10:58:46.209Z,81.10
2023-02-11T11:00:24.057Z,81.10
2023-02-11T11:01:46.670Z,81.10
2023-02-11T11:03:17.917Z,80.80
2023-02-11T11:04:41.179Z,80.70
2023-02-11T11:06:02.996Z,80.80
2023-02-11T11:07:25.706Z,80.80
2023-02-11T11:08:47.867Z,80.60
2023-02-11T11:10:26.670Z,80.60
2023-02-11T11:11:52.213Z,80.30
2023-02-11T11:13:27.815Z,80.60
2023-02-11T11:14:55.111Z,80.50
2023-02-11T11:16:22.660Z,80.40
2023-02-11T11:17:43.554Z,80.50
2023-02-11T11:19:20.406Z,80.50
2023-02-11T11:20:45.133Z,80.60
2023-02-11T11:22:05.553Z,80.40
2023-02-11T11:23:26.624Z,80.30
2023-02-11T11:24:48.080Z,80.60
2023-02-11T11:26:11.847Z,80.50
2023-02-11T11:27:33.077Z,80.50
2023-02-11T11:29:07.927Z,80.60
2023-02-11T11:30:34.175Z,80.60
2023-02-11T11:31:58.119Z,80.60
2023-02-11T11:33:23.243Z,80.50
2023-02-11T11:34:48.390Z,80.40
2023-02-11T11:36:10.816Z,80.50
2023-02-11T11:37:33.203Z,80.70
2023-02-11T11:38:56.605Z,80.50
2023-02-11T11:40:23.371Z,80.60
2023-02-11T11:41:50.748Z,80.40
2023-02-11T11:43:21.308Z,80.40
2023-02-11T11:44:56.627Z,80.40
2023-02-11T11:46:23.812Z,80.60
2023-02-11T11:47:48.324Z,80.60
2023-02-11T11:49:21.228Z,80.60
2023-02-11T11:50:43.656Z,80.50
2023-02-11T11:52:12.048Z,80.30
2023-02-11T11:53:38.700Z,80.40
2023-02-11T11:55:03.385Z,80.40
2023-02-11T11:56:26.794Z,80.50
2023-02-11T11:57:48.756Z,80.30
2023-02-11T11:59:12.032Z,80.30
2023-02-11T12:00:36.450Z,80.40
2023-02-11T12:02:21.837Z,80.40
2023-02-11T12:04:10.961Z,80.40
2023-02-11T12:05:36.279Z,80.50
2023-02-11T12:07:11.959Z,80.40
2023-02-11T12:08:39.708Z,80.40
2023-02-11T12:10:28.909Z,80.50
2023-02-11T12:12:04.749Z,80.40
2023-02-11T12:13:35.819Z,80.50
2023-02-11T12:15:03.347Z,80.40
2023-02-11T12:16:31.899Z,80.50
2023-02-11T12:18:05.936Z,80.70
2023-02-11T12:19:42.495Z,80.70
2023-02-11T12:21:16.635Z,80.50
2023-02-11T12:22:44.258Z,80.60
2023-02-11T12:24:18.024Z,80.40
2023-02-11T12:25:43.729Z,80.00
2023-02-11T12:27:08.301Z,79.80
2023-02-11T12:28:37.367Z,79.90
2023-02-11T12:30:04.214Z,80.00
2023-02-11T12:31:55.806Z,79.90
2023-02-11T12:33:29.746Z,79.70
2023-02-11T12:35:29.632Z,79.50
2023-02-11T12:37:02.856Z,79.80
2023-02-11T12:38:48.764Z,79.50
2023-02-11T12:40:17.064Z,79.40
2023-02-11T12:41:58.687Z,79.40
2023-02-11T12:43:26.376Z,79.20
2023-02-11T12:45:03.321Z,79.20
2023-02-11T12:46:39.763Z,79.10
2023-02-11T12:48:13.969Z,79.10
2023-02-11T12:49:51.667Z,78.70
2023-02-11T12:51:22.027Z,78.70
2023-02-11T12:53:01.558Z,78.80
2023-02-11T12:54:31.462Z,78.90
2023-02-11T12:55:57.376Z,78.90
2023-02-11T12:57:23.744Z,78.90
2023-02-11T12:58:45.919Z,78.80
2023-02-11T13:00:16.943Z,78.80
2023-02-11T13:01:41.652Z,78.80
2023-02-11T13:03:16.455Z,78.50
2023-02-11T13:04:43.504Z,78.60
2023-02-11T13:06:13.635Z,78.50
2023-02-11T13:07:56.033Z,78.70
2023-02-11T13:09:19.520Z,78.90
2023-02-11T13:10:41.847Z,78.70
2023-02-11T13:12:04.118Z,78.70
2023-02-11T13:13:27.729Z,78.20
2023-02-11T13:14:49.109Z,78.30
2023-02-11T13:16:19.808Z,77.90
2023-02-11T13:17:48.486Z,78.10
2023-02-11T13:19:17.409Z,77.60
2023-02-11T13:20:45.601Z,77.60
2023-02-11T13:22:09.399Z,77.70
2023-02-11T13:23:49.186Z,77.60
2023-02-11T13:25:19.957Z,77.50
2023-02-11T13:26:46.135Z,77.40
2023-02-11T13:28:19.276Z,77.60
2023-02-11T13:30:04.105Z,77.10
2023-02-11T13:31:25.222Z,76.90
2023-02-11T13:33:16.746Z,76.70
2023-02-11T13:34:57.655Z,76.70
2023-02-11T13:36:22.408Z,76.80
2023-02-11T13:37:47.746Z,77.00
2023-02-11T13:39:19.558Z,76.80
2023-02-11T13:40:40.452Z,77.10
2023-02-11T13:42:03.449Z,76.80
2023-02-11T13:43:26.148Z,77.20
2023-02-11T13:44:46.648Z,76.90
2023-02-11T13:46:10.909Z,76.90
2023-02-11T13:47:33.140Z,76.70
2023-02-11T13:48:54.305Z,76.90
2023-02-11T13:50:22.049Z,76.80
2023-02-11T13:51:44.450Z,76.70
2023-02-11T13:53:06.979Z,76.40
2023-02-11T13:54:33.521Z,76.40
2023-02-11T13:56:06.009Z,76.20
2023-02-11T13:57:35.281Z,76.10
2023-02-11T13:58:57.006Z,76.30
2023-02-11T14:00:49.055Z,76.50
2023-02-11T14:02:21.763Z,76.60
2023-02-11T14:04:07.400Z,76.70
2023-02-11T14:05:30.192Z,76.60
2023-02-11T14:07:24.533Z,76.00
2023-02-11T14:09:00.800Z,75.90
2023-02-11T14:10:48.946Z,76.00
2023-02-11T14:12:39.503Z,75.40
2023-02-11T14:14:17.236Z,75.40
2023-02-11T14:15:41.277Z,75.60
2023-02-11T14:17:29.618Z,75.70
2023-02-11T14:19:00.729Z,75.40
2023-02-11T14:20:42.486Z,75.30
2023-02-11T14:22:03.471Z,75.30
2023-02-11T14:23:26.812Z,75.30
2023-02-11T14:24:51.659Z,75.50
2023-02-11T14:26:28.950Z,75.40
2023-02-11T14:27:52.730Z,75.40
2023-02-11T14:29:17.825Z,75.50
2023-02-11T14:30:54.944Z,75.50
2023-02-11T14:32:26.764Z,75.40
2023-02-11T14:33:59.478Z,75.30
2023-02-11T14:35:25.329Z,75.40
2023-02-11T14:37:02.721Z,75.40
2023-02-11T14:38:29.706Z,75.40
2023-02-11T14:39:58.579Z,75.40
2023-02-11T14:41:22.370Z,75.60
2023-02-11T14:42:43.972Z,75.40
2023-02-11T14:44:05.006Z,75.40
2023-02-11T14:45:28.264Z,75.40
2023-02-11T14:46:50.100Z,75.40
2023-02-11T14:48:15.909Z,75.40
2023-02-11T14:49:39.651Z,75.20
2023-02-11T14:51:02.657Z,75.50
2023-02-11T14:52:26.829Z,75.40
2023-02-11T14:53:52.452Z,75.40
2023-02-11T14:55:19.290Z,75.30
2023-02-11T14:56:40.005Z,75.20
2023-02-11T14:58:22.430Z,74.90
2023-02-11T14:59:56.483Z,75.20
2023-02-11T15:01:29.199Z,75.20
2023-02-11T15:02:49.681Z,75.40
2023-02-11T15:04:24.496Z,75.30
2023-02-11T15:05:45.229Z,75.30
2023-02-11T15:07:08.516Z,75.40
2023-02-11T15:08:30.497Z,75.50
2023-02-11T15:09:54.020Z,75.30
2023-02-11T15:11:16.804Z,75.20
2023-02-11T15:12:38.156Z,75.30
2023-02-11T15:14:02.057Z,75.40
2023-02-11T15:15:22.546Z,75.40
2023-02-11T15:16:44.011Z,75.40
2023-02-11T15:18:04.982Z,75.40
2023-02-11T15:19:31.780Z,75.30
2023-02-11T15:20:54.555Z,75.30
2023-02-11T15:22:19.023Z,75.40
2023-02-11T15:23:39.731Z,75.40
2023-02-11T15:25:08.597Z,75.30
2023-02-11T15:26:29.909Z,75.50
2023-02-11T15:27:53.871Z,75.30
2023-02-11T15:29:16.325Z,75.50
2023-02-11T15:30:37.332Z,75.70
2023-02-11T15:32:13.961Z,75.80
2023-02-11T15:33:34.884Z,75.80
2023-02-11T15:34:55.767Z,75.90
2023-02-11T15:36:17.690Z,75.70
2023-02-11T15:37:39.465Z,75.70
2023-02-11T15:39:20.161Z,75.80
2023-02-11T15:40:53.279Z,75.70
2023-02-11T15:42:19.338Z,75.70
2023-02-11T15:43:44.185Z,75.40
2023-02-11T15:45:10.219Z,75.40
2023-02-11T15:46:37.532Z,75.40
2023-02-11T15:48:05.657Z,75.30
2023-02-11T15:49:26.565Z,75.40
2023-02-11T15:50:51.033Z,75.50
2023-02-11T15:52:13.510Z,75.50
2023-02-11T15:53:37.698Z,75.70
2023-02-11T15:55:00.005Z,75.60
2023-02-11T15:56:24.369Z,75.80
2023-02-11T15:57:46.229Z,75.90
2023-02-11T15:59:14.474Z,75.80
2023-02-11T16:00:37.389Z,75.80
2023-02-11T16:02:05.004Z,75.80
2023-02-11T16:03:27.767Z,75.80
2023-02-11T16:04:50.090Z,75.80
2023-02-11T16:06:23.075Z,75.80
2023-02-11T16:07:48.650Z,75.70
2023-02-11T16:09:25.170Z,75.80
2023-02-11T16:10:55.008Z,75.70
2023-02-11T16:12:24.189Z,75.60
2023-02-11T16:13:46.326Z,75.50
2023-02-11T16:15:45.598Z,75.60
2023-02-11T16:17:07.921Z,75.60
2023-02-11T16:18:38.180Z,75.70
2023-02-11T16:19:59.316Z,75.80
2023-02-11T16:21:20.701Z,75.80
2023-02-11T16:22:41.431Z,75.80
2023-02-11T16:24:03.586Z,75.80
2023-02-11T16:25:24.279Z,75.80
2023-02-11T16:26:48.185Z,75.90
2023-02-11T16:28:15.450Z,75.90
2023-02-11T16:29:37.413Z,76.10
2023-02-11T16:30:57.719Z,76.10
2023-02-11T16:32:20.360Z,76.10
2023-02-11T16:33:41.143Z,76.10
2023-02-11T16:35:02.073Z,76.10
2023-02-11T16:36:25.161Z,76.10
2023-02-11T16:37:46.216Z,76.10
2023-02-11T16:39:06.725Z,76.30
2023-02-11T16:40:27.516Z,76.40
2023-02-11T16:41:48.430Z,76.40
2023-02-11T16:43:09.314Z,76.30
2023-02-11T16:44:31.179Z,76.40
2023-02-11T16:45:52.268Z,76.30
2023-02-11T16:47:19.548Z,76.40
2023-02-11T16:48:39.908Z,76.50
2023-02-11T16:50:01.317Z,76.50
2023-02-11T16:51:22.514Z,76.40
2023-02-11T16:52:43.359Z,76.50
2023-02-11T16:54:04.293Z,76.40
2023-02-11T16:55:25.278Z,76.30
2023-02-11T16:56:45.966Z,76.30
2023-02-11T16:58:06.484Z,76.30
2023-02-11T16:59:28.609Z,76.30
2023-02-11T17:00:58.386Z,76.40
2023-02-11T17:02:24.002Z,76.30
2023-02-11T17:03:44.825Z,76.40
2023-02-11T17:05:07.688Z,76.30
2023-02-11T17:06:28.743Z,76.50
2023-02-11T17:07:49.346Z,76.50
2023-02-11T17:09:11.978Z,76.40
2023-02-11T17:10:32.242Z,76.30
2023-02-11T17:11:53.472Z,76.40
2023-02-11T17:13:14.455Z,76.50
2023-02-11T17:14:34.900Z,76.40
2023-02-11T17:15:56.961Z,76.50
2023-02-11T17:17:17.570Z,76.60
2023-02-11T17:18:38.045Z,76.60
2023-02-11T17:19:58.800Z,76.80
2023-02-11T17:21:19.185Z,76.70
2023-02-11T17:22:39.910Z,76.70
2023-02-11T17:24:00.680Z,76.80
2023-02-11T17:25:21.219Z,76.90
2023-02-11T17:26:42.843Z,76.80
2023-02-11T17:28:03.895Z,77.00
2023-02-11T17:29:26.404Z,77.00
2023-02-11T17:30:47.416Z,77.00
2023-02-11T17:32:09.705Z,77.10
2023-02-11T17:33:30.137Z,77.00
2023-02-11T17:34:52.919Z,76.80
2023-02-11T17:36:13.985Z,77.00
2023-02-11T17:37:34.657Z,77.00
2023-02-11T17:38:55.377Z,77.00
2023-02-11T17:40:16.238Z,77.00
2023-02-11T17:41:37.113Z,77.00
2023-02-11T17:42:57.590Z,77.00
2023-02-11T17:44:18.169Z,76.90
2023-02-11T17:45:41.693Z,76.90
2023-02-11T17:47:02.100Z,76.90
2023-02-11T17:48:24.458Z,77.10
2023-02-11T17:49:45.021Z,77.20
2023-02-11T17:51:06.347Z,77.00
2023-02-11T17:52:26.881Z,77.10
2023-02-11T17:53:48.182Z,77.20
2023-02-11T17:55:08.717Z,77.70
2023-02-11T17:56:32.073Z,77.60
2023-02-11T17:57:52.601Z,77.60
2023-02-11T17:59:13.906Z,77.50
2023-02-11T18:00:34.526Z,77.50
2023-02-11T18:01:54.914Z,77.40
2023-02-11T18:03:15.445Z,77.50
2023-02-11T18:04:37.543Z,77.40
2023-02-11T18:05:59.799Z,77.80